sensor_id;sensor_type;location;lat;lon;timestamp;P1;durP1;ratioP1;P2;durP2;ratioP2
3217;SDS011;1621;49.702;8.618;2023-05-13T00:00:11;5.40;;;3.67;;
3217;SDS011;1621;49.702;8.618;2023-05-13T00:02:37;5.47;;;3.27;;
3217;SDS011;1621;49.702;8.618;2023-05-13T00:05:04;6.37;;;3.63;;
3217;SDS011;1621;49.702;8.618;2023-05-13T00:07:30;6.53;;;3.97;;
3217;SDS011;1621;49.702;8.618;2023-05-13T00:09:56;4.80;;;3.90;;
3217;SDS011;1621;49.702;8.618;2023-05-13T00:12:23;7.00;;;3.40;;
3217;SDS011;1621;49.702;8.618;2023-05-13T00:14:50;5.43;;;3.83;;
3217;SDS011;1621;49.702;8.618;2023-05-13T00:17:17;4.97;;;3.40;;
3217;SDS011;1621;49.702;8.618;2023-05-13T00:19:43;4.90;;;3.70;;
3217;SDS011;1621;49.702;8.618;2023-05-13T00:22:09;6.20;;;3.40;;
3217;SDS011;1621;49.702;8.618;2023-05-13T00:24:35;7.67;;;3.50;;
3217;SDS011;1621;49.702;8.618;2023-05-13T00:27:01;4.97;;;4.00;;
3217;SDS011;1621;49.702;8.618;2023-05-13T00:29:28;5.20;;;3.70;;
3217;SDS011;1621;49.702;8.618;2023-05-13T00:31:56;8.57;;;3.70;;
3217;SDS011;1621;49.702;8.618;2023-05-13T00:34:23;5.57;;;3.87;;
3217;SDS011;1621;49.702;8.618;2023-05-13T00:36:49;4.90;;;3.90;;
3217;SDS011;1621;49.702;8.618;2023-05-13T00:39:15;6.17;;;3.57;;
3217;SDS011;1621;49.702;8.618;2023-05-13T00:41:41;6.37;;;4.33;;
3217;SDS011;1621;49.702;8.618;2023-05-13T00:44:08;4.20;;;3.10;;
3217;SDS011;1621;49.702;8.618;2023-05-13T00:46:34;4.53;;;3.10;;
3217;SDS011;1621;49.702;8.618;2023-05-13T00:49:02;5.80;;;3.30;;
3217;SDS011;1621;49.702;8.618;2023-05-13T00:51:29;7.17;;;3.40;;
3217;SDS011;1621;49.702;8.618;2023-05-13T00:53:56;5.33;;;3.43;;
3217;SDS011;1621;49.702;8.618;2023-05-13T00:56:23;6.03;;;3.30;;
3217;SDS011;1621;49.702;8.618;2023-05-13T00:58:50;6.23;;;3.30;;
3217;SDS011;1621;49.702;8.618;2023-05-13T01:01:18;3.90;;;2.80;;
3217;SDS011;1621;49.702;8.618;2023-05-13T01:03:48;5.10;;;3.27;;
3217;SDS011;1621;49.702;8.618;2023-05-13T01:06:18;7.13;;;3.50;;
3217;SDS011;1621;49.702;8.618;2023-05-13T01:08:48;6.40;;;3.40;;
3217;SDS011;1621;49.702;8.618;2023-05-13T01:11:19;5.30;;;3.30;;
3217;SDS011;1621;49.702;8.618;2023-05-13T01:13:47;7.53;;;2.83;;
3217;SDS011;1621;49.702;8.618;2023-05-13T01:16:15;5.13;;;3.00;;
3217;SDS011;1621;49.702;8.618;2023-05-13T01:18:43;4.97;;;3.10;;
3217;SDS011;1621;49.702;8.618;2023-05-13T01:21:10;4.20;;;3.20;;
3217;SDS011;1621;49.702;8.618;2023-05-13T01:23:38;9.43;;;3.57;;
3217;SDS011;1621;49.702;8.618;2023-05-13T01:26:04;8.13;;;3.47;;
3217;SDS011;1621;49.702;8.618;2023-05-13T01:28:30;5.27;;;3.40;;
3217;SDS011;1621;49.702;8.618;2023-05-13T01:30:57;4.33;;;3.17;;
3217;SDS011;1621;49.702;8.618;2023-05-13T01:33:23;4.27;;;3.00;;
3217;SDS011;1621;49.702;8.618;2023-05-13T01:35:50;4.93;;;3.50;;
3217;SDS011;1621;49.702;8.618;2023-05-13T01:38:17;7.40;;;3.20;;
3217;SDS011;1621;49.702;8.618;2023-05-13T01:40:46;4.47;;;3.23;;
3217;SDS011;1621;49.702;8.618;2023-05-13T01:43:13;4.40;;;3.20;;
3217;SDS011;1621;49.702;8.618;2023-05-13T01:45:39;6.17;;;3.30;;
3217;SDS011;1621;49.702;8.618;2023-05-13T01:48:06;4.20;;;3.10;;
3217;SDS011;1621;49.702;8.618;2023-05-13T01:50:32;8.03;;;3.70;;
3217;SDS011;1621;49.702;8.618;2023-05-13T01:52:58;6.77;;;4.03;;
3217;SDS011;1621;49.702;8.618;2023-05-13T01:55:25;5.30;;;3.90;;
3217;SDS011;1621;49.702;8.618;2023-05-13T01:57:52;6.10;;;4.00;;
3217;SDS011;1621;49.702;8.618;2023-05-13T02:00:18;5.47;;;4.67;;
3217;SDS011;1621;49.702;8.618;2023-05-13T02:02:45;4.60;;;3.80;;
3217;SDS011;1621;49.702;8.618;2023-05-13T02:05:12;5.63;;;4.00;;
3217;SDS011;1621;49.702;8.618;2023-05-13T02:07:38;4.70;;;3.30;;
3217;SDS011;1621;49.702;8.618;2023-05-13T02:10:04;4.87;;;3.63;;
3217;SDS011;1621;49.702;8.618;2023-05-13T02:12:31;5.83;;;3.90;;
3217;SDS011;1621;49.702;8.618;2023-05-13T02:14:58;8.50;;;4.00;;
3217;SDS011;1621;49.702;8.618;2023-05-13T02:17:25;4.87;;;3.73;;
3217;SDS011;1621;49.702;8.618;2023-05-13T02:19:51;10.00;;;4.20;;
3217;SDS011;1621;49.702;8.618;2023-05-13T02:22:17;5.17;;;4.10;;
3217;SDS011;1621;49.702;8.618;2023-05-13T02:24:43;5.90;;;3.63;;
3217;SDS011;1621;49.702;8.618;2023-05-13T02:27:09;13.10;;;4.20;;
3217;SDS011;1621;49.702;8.618;2023-05-13T02:29:40;5.00;;;3.73;;
3217;SDS011;1621;49.702;8.618;2023-05-13T02:32:07;6.07;;;4.27;;
3217;SDS011;1621;49.702;8.618;2023-05-13T02:34:33;6.73;;;4.00;;
3217;SDS011;1621;49.702;8.618;2023-05-13T02:37:01;5.87;;;4.07;;
3217;SDS011;1621;49.702;8.618;2023-05-13T02:39:27;5.47;;;4.23;;
3217;SDS011;1621;49.702;8.618;2023-05-13T02:41:54;8.10;;;3.93;;
3217;SDS011;1621;49.702;8.618;2023-05-13T02:44:20;4.63;;;3.80;;
3217;SDS011;1621;49.702;8.618;2023-05-13T02:46:46;5.70;;;3.93;;
3217;SDS011;1621;49.702;8.618;2023-05-13T02:49:14;4.60;;;3.50;;
3217;SDS011;1621;49.702;8.618;2023-05-13T02:51:40;3.93;;;3.17;;
3217;SDS011;1621;49.702;8.618;2023-05-13T02:54:06;8.43;;;4.13;;
3217;SDS011;1621;49.702;8.618;2023-05-13T02:56:32;5.03;;;3.97;;
3217;SDS011;1621;49.702;8.618;2023-05-13T02:58:59;5.30;;;4.20;;
3217;SDS011;1621;49.702;8.618;2023-05-13T03:01:25;6.83;;;5.30;;
3217;SDS011;1621;49.702;8.618;2023-05-13T03:03:51;6.90;;;4.90;;
3217;SDS011;1621;49.702;8.618;2023-05-13T03:06:19;5.10;;;4.07;;
3217;SDS011;1621;49.702;8.618;2023-05-13T03:08:45;9.73;;;4.90;;
3217;SDS011;1621;49.702;8.618;2023-05-13T03:11:11;5.70;;;4.70;;
3217;SDS011;1621;49.702;8.618;2023-05-13T03:13:38;6.40;;;4.50;;
3217;SDS011;1621;49.702;8.618;2023-05-13T03:16:04;7.37;;;4.90;;
3217;SDS011;1621;49.702;8.618;2023-05-13T03:18:30;7.37;;;4.60;;
3217;SDS011;1621;49.702;8.618;2023-05-13T03:20:57;6.13;;;4.53;;
3217;SDS011;1621;49.702;8.618;2023-05-13T03:23:24;6.70;;;4.70;;
3217;SDS011;1621;49.702;8.618;2023-05-13T03:25:51;12.53;;;5.17;;
3217;SDS011;1621;49.702;8.618;2023-05-13T03:28:17;7.30;;;5.10;;
3217;SDS011;1621;49.702;8.618;2023-05-13T03:30:43;6.83;;;5.10;;
3217;SDS011;1621;49.702;8.618;2023-05-13T03:33:09;6.00;;;4.60;;
3217;SDS011;1621;49.702;8.618;2023-05-13T03:35:35;5.60;;;4.70;;
3217;SDS011;1621;49.702;8.618;2023-05-13T03:38:02;5.77;;;4.70;;
3217;SDS011;1621;49.702;8.618;2023-05-13T03:40:30;5.70;;;4.70;;
3217;SDS011;1621;49.702;8.618;2023-05-13T03:42:56;6.77;;;4.60;;
3217;SDS011;1621;49.702;8.618;2023-05-13T03:45:22;6.63;;;5.27;;
3217;SDS011;1621;49.702;8.618;2023-05-13T03:47:48;8.87;;;5.20;;
3217;SDS011;1621;49.702;8.618;2023-05-13T03:50:15;6.53;;;4.67;;
3217;SDS011;1621;49.702;8.618;2023-05-13T03:52:41;6.63;;;4.77;;
3217;SDS011;1621;49.702;8.618;2023-05-13T03:55:07;6.53;;;4.93;;
3217;SDS011;1621;49.702;8.618;2023-05-13T03:57:35;5.80;;;4.47;;
3217;SDS011;1621;49.702;8.618;2023-05-13T04:00:01;5.27;;;4.57;;
3217;SDS011;1621;49.702;8.618;2023-05-13T04:02:28;5.57;;;4.20;;
3217;SDS011;1621;49.702;8.618;2023-05-13T04:04:54;6.30;;;5.03;;
3217;SDS011;1621;49.702;8.618;2023-05-13T04:07:20;5.50;;;4.37;;
3217;SDS011;1621;49.702;8.618;2023-05-13T04:09:47;10.97;;;5.17;;
3217;SDS011;1621;49.702;8.618;2023-05-13T04:12:13;6.63;;;4.57;;
3217;SDS011;1621;49.702;8.618;2023-05-13T04:14:43;6.63;;;4.43;;
3217;SDS011;1621;49.702;8.618;2023-05-13T04:17:09;10.30;;;5.17;;
3217;SDS011;1621;49.702;8.618;2023-05-13T04:19:35;5.73;;;5.00;;
3217;SDS011;1621;49.702;8.618;2023-05-13T04:22:02;7.43;;;5.03;;
3217;SDS011;1621;49.702;8.618;2023-05-13T04:24:28;6.63;;;4.33;;
3217;SDS011;1621;49.702;8.618;2023-05-13T04:26:55;10.63;;;5.33;;
3217;SDS011;1621;49.702;8.618;2023-05-13T04:29:21;6.40;;;5.00;;
3217;SDS011;1621;49.702;8.618;2023-05-13T04:31:48;6.50;;;4.23;;
3217;SDS011;1621;49.702;8.618;2023-05-13T04:34:15;6.10;;;5.00;;
3217;SDS011;1621;49.702;8.618;2023-05-13T04:36:41;8.40;;;5.73;;
3217;SDS011;1621;49.702;8.618;2023-05-13T04:39:08;6.50;;;4.60;;
3217;SDS011;1621;49.702;8.618;2023-05-13T04:41:34;6.93;;;4.80;;
3217;SDS011;1621;49.702;8.618;2023-05-13T04:44:01;6.53;;;5.70;;
3217;SDS011;1621;49.702;8.618;2023-05-13T04:46:27;7.83;;;5.63;;
3217;SDS011;1621;49.702;8.618;2023-05-13T04:48:55;6.90;;;4.90;;
3217;SDS011;1621;49.702;8.618;2023-05-13T04:51:21;7.07;;;5.03;;
3217;SDS011;1621;49.702;8.618;2023-05-13T04:53:47;6.33;;;5.30;;
3217;SDS011;1621;49.702;8.618;2023-05-13T04:56:13;7.40;;;5.60;;
3217;SDS011;1621;49.702;8.618;2023-05-13T04:58:40;6.70;;;5.40;;
3217;SDS011;1621;49.702;8.618;2023-05-13T05:01:06;7.70;;;5.23;;
3217;SDS011;1621;49.702;8.618;2023-05-13T05:03:33;8.53;;;6.00;;
3217;SDS011;1621;49.702;8.618;2023-05-13T05:06:00;8.47;;;5.90;;
3217;SDS011;1621;49.702;8.618;2023-05-13T05:08:26;7.43;;;6.00;;
3217;SDS011;1621;49.702;8.618;2023-05-13T05:10:53;7.40;;;5.73;;
3217;SDS011;1621;49.702;8.618;2023-05-13T05:13:20;10.10;;;5.50;;
3217;SDS011;1621;49.702;8.618;2023-05-13T05:15:46;7.50;;;6.17;;
3217;SDS011;1621;49.702;8.618;2023-05-13T05:18:12;7.27;;;5.50;;
3217;SDS011;1621;49.702;8.618;2023-05-13T05:20:38;7.33;;;5.70;;
3217;SDS011;1621;49.702;8.618;2023-05-13T05:23:06;12.00;;;5.83;;
3217;SDS011;1621;49.702;8.618;2023-05-13T05:25:34;8.50;;;5.40;;
3217;SDS011;1621;49.702;8.618;2023-05-13T05:28:00;9.90;;;6.30;;
3217;SDS011;1621;49.702;8.618;2023-05-13T05:30:28;7.07;;;5.63;;
3217;SDS011;1621;49.702;8.618;2023-05-13T05:32:55;7.23;;;5.77;;
3217;SDS011;1621;49.702;8.618;2023-05-13T05:35:21;10.53;;;6.43;;
3217;SDS011;1621;49.702;8.618;2023-05-13T05:37:47;8.47;;;6.50;;
3217;SDS011;1621;49.702;8.618;2023-05-13T05:40:15;6.77;;;5.53;;
3217;SDS011;1621;49.702;8.618;2023-05-13T05:42:41;9.63;;;6.10;;
3217;SDS011;1621;49.702;8.618;2023-05-13T05:45:08;9.23;;;6.00;;
3217;SDS011;1621;49.702;8.618;2023-05-13T05:47:34;8.37;;;6.77;;
3217;SDS011;1621;49.702;8.618;2023-05-13T05:50:00;9.13;;;6.43;;
3217;SDS011;1621;49.702;8.618;2023-05-13T05:52:27;6.70;;;5.60;;
3217;SDS011;1621;49.702;8.618;2023-05-13T05:54:53;7.57;;;5.93;;
3217;SDS011;1621;49.702;8.618;2023-05-13T05:57:21;7.20;;;5.70;;
3217;SDS011;1621;49.702;8.618;2023-05-13T05:59:47;10.37;;;5.87;;
3217;SDS011;1621;49.702;8.618;2023-05-13T06:02:13;6.43;;;5.20;;
3217;SDS011;1621;49.702;8.618;2023-05-13T06:04:39;6.80;;;5.33;;
3217;SDS011;1621;49.702;8.618;2023-05-13T06:07:06;9.83;;;5.60;;
3217;SDS011;1621;49.702;8.618;2023-05-13T06:09:33;9.30;;;6.00;;
3217;SDS011;1621;49.702;8.618;2023-05-13T06:11:59;6.40;;;4.90;;
3217;SDS011;1621;49.702;8.618;2023-05-13T06:14:27;5.90;;;4.33;;
3217;SDS011;1621;49.702;8.618;2023-05-13T06:16:53;6.60;;;4.60;;
3217;SDS011;1621;49.702;8.618;2023-05-13T06:19:19;5.03;;;4.23;;
3217;SDS011;1621;49.702;8.618;2023-05-13T06:21:45;6.53;;;4.87;;
3217;SDS011;1621;49.702;8.618;2023-05-13T06:24:12;4.30;;;3.30;;
3217;SDS011;1621;49.702;8.618;2023-05-13T06:26:39;5.50;;;3.37;;
3217;SDS011;1621;49.702;8.618;2023-05-13T06:29:05;4.70;;;3.10;;
3217;SDS011;1621;49.702;8.618;2023-05-13T06:31:32;4.33;;;3.13;;
3217;SDS011;1621;49.702;8.618;2023-05-13T06:33:59;5.37;;;3.27;;
3217;SDS011;1621;49.702;8.618;2023-05-13T06:36:25;4.47;;;3.13;;
3217;SDS011;1621;49.702;8.618;2023-05-13T06:38:51;4.97;;;3.10;;
3217;SDS011;1621;49.702;8.618;2023-05-13T06:41:18;4.57;;;3.27;;
3217;SDS011;1621;49.702;8.618;2023-05-13T06:43:44;4.00;;;2.80;;
3217;SDS011;1621;49.702;8.618;2023-05-13T06:46:12;5.00;;;3.30;;
3217;SDS011;1621;49.702;8.618;2023-05-13T06:48:40;4.83;;;3.10;;
3217;SDS011;1621;49.702;8.618;2023-05-13T06:51:06;7.00;;;3.00;;
3217;SDS011;1621;49.702;8.618;2023-05-13T06:53:33;3.57;;;2.50;;
3217;SDS011;1621;49.702;8.618;2023-05-13T06:55:59;4.17;;;2.77;;
3217;SDS011;1621;49.702;8.618;2023-05-13T06:58:25;4.53;;;2.30;;
3217;SDS011;1621;49.702;8.618;2023-05-13T07:00:51;3.87;;;2.73;;
3217;SDS011;1621;49.702;8.618;2023-05-13T07:03:18;8.10;;;2.83;;
3217;SDS011;1621;49.702;8.618;2023-05-13T07:05:45;4.87;;;3.03;;
3217;SDS011;1621;49.702;8.618;2023-05-13T07:08:12;4.90;;;2.70;;
3217;SDS011;1621;49.702;8.618;2023-05-13T07:10:41;3.07;;;2.13;;
3217;SDS011;1621;49.702;8.618;2023-05-13T07:13:08;4.60;;;2.83;;
3217;SDS011;1621;49.702;8.618;2023-05-13T07:15:35;4.50;;;2.83;;
3217;SDS011;1621;49.702;8.618;2023-05-13T07:18:01;4.60;;;2.77;;
3217;SDS011;1621;49.702;8.618;2023-05-13T07:20:27;3.13;;;2.23;;
3217;SDS011;1621;49.702;8.618;2023-05-13T07:22:55;4.17;;;2.53;;
3217;SDS011;1621;49.702;8.618;2023-05-13T07:25:22;4.27;;;2.93;;
3217;SDS011;1621;49.702;8.618;2023-05-13T07:27:48;3.80;;;2.60;;
3217;SDS011;1621;49.702;8.618;2023-05-13T07:30:14;3.60;;;2.60;;
3217;SDS011;1621;49.702;8.618;2023-05-13T07:32:40;4.00;;;2.77;;
3217;SDS011;1621;49.702;8.618;2023-05-13T07:35:07;4.10;;;2.70;;
3217;SDS011;1621;49.702;8.618;2023-05-13T07:37:33;4.50;;;2.87;;
3217;SDS011;1621;49.702;8.618;2023-05-13T07:40:02;3.90;;;2.70;;
3217;SDS011;1621;49.702;8.618;2023-05-13T07:42:29;3.90;;;2.63;;
3217;SDS011;1621;49.702;8.618;2023-05-13T07:44:55;3.70;;;2.50;;
3217;SDS011;1621;49.702;8.618;2023-05-13T07:47:21;3.90;;;3.07;;
3217;SDS011;1621;49.702;8.618;2023-05-13T07:49:48;5.23;;;3.20;;
3217;SDS011;1621;49.702;8.618;2023-05-13T07:52:14;6.20;;;3.17;;
3217;SDS011;1621;49.702;8.618;2023-05-13T07:54:40;4.23;;;2.80;;
3217;SDS011;1621;49.702;8.618;2023-05-13T07:57:08;4.30;;;2.73;;
3217;SDS011;1621;49.702;8.618;2023-05-13T07:59:34;4.30;;;2.87;;
3217;SDS011;1621;49.702;8.618;2023-05-13T08:02:00;4.40;;;2.63;;
3217;SDS011;1621;49.702;8.618;2023-05-13T08:04:26;4.20;;;2.80;;
3217;SDS011;1621;49.702;8.618;2023-05-13T08:06:53;4.80;;;3.10;;
3217;SDS011;1621;49.702;8.618;2023-05-13T08:09:19;3.60;;;2.50;;
3217;SDS011;1621;49.702;8.618;2023-05-13T08:11:45;4.20;;;2.73;;
3217;SDS011;1621;49.702;8.618;2023-05-13T08:14:13;4.30;;;3.00;;
3217;SDS011;1621;49.702;8.618;2023-05-13T08:16:39;4.63;;;2.70;;
3217;SDS011;1621;49.702;8.618;2023-05-13T08:19:05;5.33;;;3.03;;
3217;SDS011;1621;49.702;8.618;2023-05-13T08:21:31;5.20;;;2.70;;
3217;SDS011;1621;49.702;8.618;2023-05-13T08:23:58;4.33;;;2.80;;
3217;SDS011;1621;49.702;8.618;2023-05-13T08:26:24;5.33;;;2.87;;
3217;SDS011;1621;49.702;8.618;2023-05-13T08:28:50;4.80;;;3.20;;
3217;SDS011;1621;49.702;8.618;2023-05-13T08:31:18;5.63;;;3.00;;
3217;SDS011;1621;49.702;8.618;2023-05-13T08:33:44;4.20;;;3.10;;
3217;SDS011;1621;49.702;8.618;2023-05-13T08:36:13;7.23;;;2.57;;
3217;SDS011;1621;49.702;8.618;2023-05-13T08:38:39;3.60;;;2.73;;
3217;SDS011;1621;49.702;8.618;2023-05-13T08:41:06;3.93;;;2.77;;
3217;SDS011;1621;49.702;8.618;2023-05-13T08:43:33;3.67;;;2.80;;
3217;SDS011;1621;49.702;8.618;2023-05-13T08:46:01;3.90;;;2.40;;
3217;SDS011;1621;49.702;8.618;2023-05-13T08:48:29;4.23;;;3.10;;
3217;SDS011;1621;49.702;8.618;2023-05-13T08:50:56;4.40;;;2.70;;
3217;SDS011;1621;49.702;8.618;2023-05-13T08:53:22;6.00;;;3.17;;
3217;SDS011;1621;49.702;8.618;2023-05-13T08:55:50;6.10;;;2.53;;
3217;SDS011;1621;49.702;8.618;2023-05-13T08:58:16;4.00;;;2.90;;
3217;SDS011;1621;49.702;8.618;2023-05-13T09:00:42;4.50;;;2.80;;
3217;SDS011;1621;49.702;8.618;2023-05-13T09:03:09;6.53;;;3.40;;
3217;SDS011;1621;49.702;8.618;2023-05-13T09:05:37;5.70;;;2.83;;
3217;SDS011;1621;49.702;8.618;2023-05-13T09:08:04;4.20;;;2.73;;
3217;SDS011;1621;49.702;8.618;2023-05-13T09:10:32;4.50;;;2.60;;
3217;SDS011;1621;49.702;8.618;2023-05-13T09:12:58;4.03;;;2.50;;
3217;SDS011;1621;49.702;8.618;2023-05-13T09:15:26;4.23;;;2.90;;
3217;SDS011;1621;49.702;8.618;2023-05-13T09:17:53;6.00;;;3.27;;
3217;SDS011;1621;49.702;8.618;2023-05-13T09:20:20;4.67;;;3.20;;
3217;SDS011;1621;49.702;8.618;2023-05-13T09:22:48;3.43;;;2.57;;
3217;SDS011;1621;49.702;8.618;2023-05-13T09:25:15;4.73;;;2.87;;
3217;SDS011;1621;49.702;8.618;2023-05-13T09:27:42;4.00;;;2.80;;
3217;SDS011;1621;49.702;8.618;2023-05-13T09:30:09;4.73;;;2.53;;
3217;SDS011;1621;49.702;8.618;2023-05-13T09:32:35;4.10;;;2.80;;
3217;SDS011;1621;49.702;8.618;2023-05-13T09:35:08;4.50;;;3.00;;
3217;SDS011;1621;49.702;8.618;2023-05-13T09:37:35;3.60;;;2.57;;
3217;SDS011;1621;49.702;8.618;2023-05-13T09:40:02;5.20;;;2.87;;
3217;SDS011;1621;49.702;8.618;2023-05-13T09:42:29;4.90;;;2.60;;
3217;SDS011;1621;49.702;8.618;2023-05-13T09:44:57;4.00;;;2.53;;
3217;SDS011;1621;49.702;8.618;2023-05-13T09:47:28;3.63;;;2.50;;
3217;SDS011;1621;49.702;8.618;2023-05-13T09:49:55;5.17;;;2.50;;
3217;SDS011;1621;49.702;8.618;2023-05-13T09:52:21;6.43;;;2.47;;
3217;SDS011;1621;49.702;8.618;2023-05-13T09:54:48;3.70;;;2.40;;
3217;SDS011;1621;49.702;8.618;2023-05-13T09:57:15;3.60;;;2.53;;
3217;SDS011;1621;49.702;8.618;2023-05-13T09:59:41;4.67;;;2.43;;
3217;SDS011;1621;49.702;8.618;2023-05-13T10:02:08;4.17;;;2.50;;
3217;SDS011;1621;49.702;8.618;2023-05-13T10:04:34;4.93;;;2.37;;
3217;SDS011;1621;49.702;8.618;2023-05-13T10:07:01;3.90;;;2.50;;
3217;SDS011;1621;49.702;8.618;2023-05-13T10:09:27;3.97;;;2.63;;
3217;SDS011;1621;49.702;8.618;2023-05-13T10:11:53;5.50;;;2.40;;
3217;SDS011;1621;49.702;8.618;2023-05-13T10:14:22;6.63;;;3.30;;
3217;SDS011;1621;49.702;8.618;2023-05-13T10:16:48;5.23;;;3.07;;
3217;SDS011;1621;49.702;8.618;2023-05-13T10:19:16;8.57;;;2.43;;
3217;SDS011;1621;49.702;8.618;2023-05-13T10:21:42;3.67;;;2.80;;
3217;SDS011;1621;49.702;8.618;2023-05-13T10:24:08;36.73;;;14.67;;
3217;SDS011;1621;49.702;8.618;2023-05-13T10:26:35;6.20;;;3.83;;
3217;SDS011;1621;49.702;8.618;2023-05-13T10:29:02;6.40;;;3.17;;
3217;SDS011;1621;49.702;8.618;2023-05-13T10:31:29;4.40;;;2.80;;
3217;SDS011;1621;49.702;8.618;2023-05-13T10:33:56;5.87;;;3.00;;
3217;SDS011;1621;49.702;8.618;2023-05-13T10:36:32;5.00;;;2.90;;
3217;SDS011;1621;49.702;8.618;2023-05-13T10:39:05;6.27;;;2.83;;
3217;SDS011;1621;49.702;8.618;2023-05-13T10:41:50;6.70;;;3.00;;
3217;SDS011;1621;49.702;8.618;2023-05-13T10:44:27;4.00;;;3.20;;
3217;SDS011;1621;49.702;8.618;2023-05-13T10:46:56;5.20;;;3.47;;
3217;SDS011;1621;49.702;8.618;2023-05-13T10:49:22;5.80;;;3.20;;
3217;SDS011;1621;49.702;8.618;2023-05-13T10:51:50;3.57;;;2.83;;
3217;SDS011;1621;49.702;8.618;2023-05-13T10:54:17;4.40;;;2.47;;
3217;SDS011;1621;49.702;8.618;2023-05-13T10:56:43;4.00;;;3.20;;
3217;SDS011;1621;49.702;8.618;2023-05-13T10:59:09;4.60;;;3.00;;
3217;SDS011;1621;49.702;8.618;2023-05-13T11:01:37;3.97;;;2.53;;
3217;SDS011;1621;49.702;8.618;2023-05-13T11:04:10;6.00;;;3.00;;
3217;SDS011;1621;49.702;8.618;2023-05-13T11:06:37;4.53;;;3.03;;
3217;SDS011;1621;49.702;8.618;2023-05-13T11:09:05;9.77;;;3.83;;
3217;SDS011;1621;49.702;8.618;2023-05-13T11:11:32;6.37;;;3.10;;
3217;SDS011;1621;49.702;8.618;2023-05-13T11:14:02;4.20;;;3.27;;
3217;SDS011;1621;49.702;8.618;2023-05-13T11:16:28;5.00;;;3.17;;
3217;SDS011;1621;49.702;8.618;2023-05-13T11:18:54;7.00;;;3.10;;
3217;SDS011;1621;49.702;8.618;2023-05-13T11:21:31;5.17;;;3.30;;
3217;SDS011;1621;49.702;8.618;2023-05-13T11:23:59;4.80;;;3.27;;
3217;SDS011;1621;49.702;8.618;2023-05-13T11:26:39;4.33;;;3.37;;
3217;SDS011;1621;49.702;8.618;2023-05-13T11:29:06;5.23;;;2.90;;
3217;SDS011;1621;49.702;8.618;2023-05-13T11:31:42;5.00;;;3.40;;
3217;SDS011;1621;49.702;8.618;2023-05-13T11:34:09;4.60;;;2.93;;
3217;SDS011;1621;49.702;8.618;2023-05-13T11:36:38;5.83;;;3.47;;
3217;SDS011;1621;49.702;8.618;2023-05-13T11:39:08;9.53;;;2.73;;
3217;SDS011;1621;49.702;8.618;2023-05-13T11:41:36;5.10;;;3.27;;
3217;SDS011;1621;49.702;8.618;2023-05-13T11:44:03;4.50;;;3.00;;
3217;SDS011;1621;49.702;8.618;2023-05-13T11:46:30;4.67;;;3.30;;
3217;SDS011;1621;49.702;8.618;2023-05-13T11:48:56;3.43;;;2.57;;
3217;SDS011;1621;49.702;8.618;2023-05-13T11:51:23;3.87;;;2.60;;
3217;SDS011;1621;49.702;8.618;2023-05-13T11:53:51;6.63;;;2.70;;
3217;SDS011;1621;49.702;8.618;2023-05-13T11:56:24;4.60;;;2.73;;
3217;SDS011;1621;49.702;8.618;2023-05-13T11:58:51;4.43;;;2.77;;
3217;SDS011;1621;49.702;8.618;2023-05-13T12:01:17;4.10;;;2.70;;
3217;SDS011;1621;49.702;8.618;2023-05-13T12:03:43;4.10;;;2.90;;
3217;SDS011;1621;49.702;8.618;2023-05-13T12:06:10;8.83;;;3.00;;
3217;SDS011;1621;49.702;8.618;2023-05-13T12:08:41;4.00;;;2.90;;
3217;SDS011;1621;49.702;8.618;2023-05-13T12:11:09;6.87;;;2.90;;
3217;SDS011;1621;49.702;8.618;2023-05-13T12:13:37;5.50;;;2.87;;
3217;SDS011;1621;49.702;8.618;2023-05-13T12:16:03;7.20;;;2.90;;
3217;SDS011;1621;49.702;8.618;2023-05-13T12:18:30;6.40;;;3.07;;
3217;SDS011;1621;49.702;8.618;2023-05-13T12:20:57;5.00;;;2.70;;
3217;SDS011;1621;49.702;8.618;2023-05-13T12:23:23;8.83;;;2.70;;
3217;SDS011;1621;49.702;8.618;2023-05-13T12:25:50;8.13;;;3.07;;
3217;SDS011;1621;49.702;8.618;2023-05-13T12:28:19;3.70;;;2.40;;
3217;SDS011;1621;49.702;8.618;2023-05-13T12:30:48;4.80;;;3.00;;
3217;SDS011;1621;49.702;8.618;2023-05-13T12:33:15;4.20;;;2.43;;
3217;SDS011;1621;49.702;8.618;2023-05-13T12:35:41;10.90;;;3.50;;
3217;SDS011;1621;49.702;8.618;2023-05-13T12:38:12;9.57;;;3.63;;
3217;SDS011;1621;49.702;8.618;2023-05-13T12:40:39;4.10;;;2.93;;
3217;SDS011;1621;49.702;8.618;2023-05-13T12:43:05;5.60;;;2.93;;
3217;SDS011;1621;49.702;8.618;2023-05-13T12:45:32;7.20;;;2.73;;
3217;SDS011;1621;49.702;8.618;2023-05-13T12:48:00;5.40;;;2.67;;
3217;SDS011;1621;49.702;8.618;2023-05-13T12:50:26;3.13;;;2.33;;
3217;SDS011;1621;49.702;8.618;2023-05-13T12:52:53;4.83;;;2.20;;
3217;SDS011;1621;49.702;8.618;2023-05-13T12:55:19;3.53;;;2.07;;
3217;SDS011;1621;49.702;8.618;2023-05-13T12:57:53;3.50;;;2.10;;
3217;SDS011;1621;49.702;8.618;2023-05-13T13:00:19;5.60;;;1.90;;
3217;SDS011;1621;49.702;8.618;2023-05-13T13:02:47;3.80;;;2.17;;
3217;SDS011;1621;49.702;8.618;2023-05-13T13:05:13;3.70;;;2.20;;
3217;SDS011;1621;49.702;8.618;2023-05-13T13:07:39;2.90;;;2.03;;
3217;SDS011;1621;49.702;8.618;2023-05-13T13:10:06;3.20;;;2.37;;
3217;SDS011;1621;49.702;8.618;2023-05-13T13:12:32;10.70;;;2.80;;
3217;SDS011;1621;49.702;8.618;2023-05-13T13:14:59;3.90;;;2.20;;
3217;SDS011;1621;49.702;8.618;2023-05-13T13:17:25;4.30;;;2.57;;
3217;SDS011;1621;49.702;8.618;2023-05-13T13:19:52;7.70;;;3.07;;
3217;SDS011;1621;49.702;8.618;2023-05-13T13:22:19;3.50;;;2.57;;
3217;SDS011;1621;49.702;8.618;2023-05-13T13:24:45;4.27;;;2.50;;
3217;SDS011;1621;49.702;8.618;2023-05-13T13:27:11;5.37;;;3.20;;
3217;SDS011;1621;49.702;8.618;2023-05-13T13:29:37;3.53;;;2.40;;
3217;SDS011;1621;49.702;8.618;2023-05-13T13:32:04;4.97;;;2.67;;
3217;SDS011;1621;49.702;8.618;2023-05-13T13:34:30;3.57;;;2.67;;
3217;SDS011;1621;49.702;8.618;2023-05-13T13:36:58;4.07;;;3.10;;
3217;SDS011;1621;49.702;8.618;2023-05-13T13:39:25;4.33;;;2.50;;
3217;SDS011;1621;49.702;8.618;2023-05-13T13:41:51;5.10;;;2.80;;
3217;SDS011;1621;49.702;8.618;2023-05-13T13:44:17;9.03;;;3.13;;
3217;SDS011;1621;49.702;8.618;2023-05-13T13:46:43;4.93;;;3.10;;
3217;SDS011;1621;49.702;8.618;2023-05-13T13:49:10;4.97;;;3.50;;
3217;SDS011;1621;49.702;8.618;2023-05-13T13:51:36;4.97;;;3.53;;
3217;SDS011;1621;49.702;8.618;2023-05-13T13:54:04;8.10;;;3.40;;
3217;SDS011;1621;49.702;8.618;2023-05-13T13:56:30;4.50;;;3.00;;
3217;SDS011;1621;49.702;8.618;2023-05-13T13:58:56;5.93;;;3.50;;
3217;SDS011;1621;49.702;8.618;2023-05-13T14:01:22;7.30;;;3.37;;
3217;SDS011;1621;49.702;8.618;2023-05-13T14:03:49;5.77;;;3.67;;
3217;SDS011;1621;49.702;8.618;2023-05-13T14:06:15;5.50;;;3.13;;
3217;SDS011;1621;49.702;8.618;2023-05-13T14:08:41;3.87;;;2.97;;
3217;SDS011;1621;49.702;8.618;2023-05-13T14:11:09;4.60;;;3.13;;
3217;SDS011;1621;49.702;8.618;2023-05-13T14:13:35;5.13;;;2.87;;
3217;SDS011;1621;49.702;8.618;2023-05-13T14:16:02;5.53;;;3.23;;
3217;SDS011;1621;49.702;8.618;2023-05-13T14:18:29;5.00;;;3.30;;
3217;SDS011;1621;49.702;8.618;2023-05-13T14:20:55;5.20;;;2.73;;
3217;SDS011;1621;49.702;8.618;2023-05-13T14:23:21;4.40;;;3.10;;
3217;SDS011;1621;49.702;8.618;2023-05-13T14:25:47;6.53;;;3.20;;
3217;SDS011;1621;49.702;8.618;2023-05-13T14:28:15;8.83;;;3.47;;
3217;SDS011;1621;49.702;8.618;2023-05-13T14:30:42;4.87;;;2.97;;
3217;SDS011;1621;49.702;8.618;2023-05-13T14:33:08;3.43;;;2.50;;
3217;SDS011;1621;49.702;8.618;2023-05-13T14:35:34;5.93;;;3.43;;
3217;SDS011;1621;49.702;8.618;2023-05-13T14:38:01;3.67;;;2.73;;
3217;SDS011;1621;49.702;8.618;2023-05-13T14:40:27;5.90;;;2.70;;
3217;SDS011;1621;49.702;8.618;2023-05-13T14:42:53;5.97;;;3.43;;
3217;SDS011;1621;49.702;8.618;2023-05-13T14:45:21;7.43;;;3.50;;
3217;SDS011;1621;49.702;8.618;2023-05-13T14:47:47;5.33;;;3.20;;
3217;SDS011;1621;49.702;8.618;2023-05-13T14:50:17;6.60;;;4.40;;
3217;SDS011;1621;49.702;8.618;2023-05-13T14:52:43;5.20;;;3.40;;
3217;SDS011;1621;49.702;8.618;2023-05-13T14:55:10;6.23;;;3.97;;
3217;SDS011;1621;49.702;8.618;2023-05-13T14:57:36;7.20;;;3.67;;
3217;SDS011;1621;49.702;8.618;2023-05-13T15:00:03;4.53;;;3.20;;
3217;SDS011;1621;49.702;8.618;2023-05-13T15:02:31;5.20;;;3.80;;
3217;SDS011;1621;49.702;8.618;2023-05-13T15:04:57;4.10;;;2.90;;
3217;SDS011;1621;49.702;8.618;2023-05-13T15:07:23;4.60;;;3.53;;
3217;SDS011;1621;49.702;8.618;2023-05-13T15:09:50;4.77;;;3.43;;
3217;SDS011;1621;49.702;8.618;2023-05-13T15:12:16;3.90;;;2.83;;